Terminal Aerodrome Forecast
Issued by NWS

Home | Current Version | Previous Version | Text Only | Print | Product List | Glossary On
Versions: 1 2 3 4 5 6 7 8 9 10 11 12 13 14 15 16 17 18 19 20 21
000
FTUS42 KMLB 272337
TAFLEE
TAF
KLEE 272337Z 2800/2824 32006KT P6SM VCSH SCT025 BKN100 OVC250
     FM280300 VRB03KT P6SM -RA BKN060 OVC120
     FM281400 07006KT P6SM VCSH SCT025 OVC040
     FM281800 09008KT P6SM VCTS SCT025CB BKN040=

USA.gov is the U.S. government's official web portal to all federal, state and local government web resources and services.